Time;durP1;ratioP1;P1;durP2;ratioP2;P2;SDS_P1;SDS_P2;PMS_P1;PMS_P2;Temp;Humidity;BMP_temperature;BMP_pressure;BME280_temperature;BME280_humidity;BME280_pressure;Samples;Min_cycle;Max_cycle;Signal;HPM_P1;HPM_P2
2021/11/22 00:01:33;;;;;;;14.10;7.95;;;;;;;4.75;84.04;100629.71;1629122;86;21040;-75
2021/11/22 00:03:59;;;;;;;19.80;8.35;;;;;;;4.78;84.03;100633.58;1666211;85;21281;-75
2021/11/22 00:06:26;;;;;;;12.50;6.72;;;;;;;4.82;84.08;100644.28;1654641;86;20950;-75
2021/11/22 00:08:52;;;;;;;17.55;8.28;;;;;;;4.83;83.98;100643.44;1631139;86;21537;-75
2021/11/22 00:11:18;;;;;;;10.93;7.10;;;;;;;4.81;83.91;100644.27;1675397;84;21145;-75
2021/11/22 00:13:45;;;;;;;11.70;6.87;;;;;;;4.82;84.00;100649.41;1686019;84;21053;-75
2021/11/22 00:16:14;;;;;;;14.05;7.30;;;;;;;4.83;84.00;100649.84;1685580;84;21079;-75
2021/11/22 00:18:43;;;;;;;11.40;6.42;;;;;;;4.84;84.03;100656.68;1675799;84;21125;-75
2021/11/22 00:21:09;;;;;;;26.73;10.05;;;;;;;4.84;83.99;100654.13;1649094;86;21143;-75
2021/11/22 00:23:35;;;;;;;;;;;;;;;4.80;83.91;100654.94;1688114;84;21110;-75
2021/11/22 00:26:01;;;;;;;23.07;9.10;;;;;;;4.79;84.04;100663.89;1687139;84;20190;-75
2021/11/22 00:28:28;;;;;;;16.07;8.73;;;;;;;4.80;84.07;100665.19;1639749;86;21053;-75
2021/11/22 00:30:55;;;;;;;17.00;7.62;;;;;;;4.80;84.09;100664.33;1640895;86;21081;-75
2021/11/22 00:33:21;;;;;;;14.63;6.70;;;;;;;4.82;84.11;100670.33;1653799;86;21537;-75
2021/11/22 00:35:49;;;;;;;14.80;7.10;;;;;;;4.83;84.12;100668.20;1637626;86;21001;-75
2021/11/22 00:38:16;;;;;;;15.28;8.30;;;;;;;4.84;84.10;100675.03;1621006;87;21096;-75
2021/11/22 00:40:43;;;;;;;12.47;6.85;;;;;;;4.87;84.14;100684.03;1642102;86;21072;-75
2021/11/22 00:43:10;;;;;;;12.45;7.15;;;;;;;4.88;84.14;100679.34;1620783;86;21048;-75
2021/11/22 00:45:40;;;;;;;16.57;7.30;;;;;;;4.88;84.11;100684.05;1637665;87;21160;-75
2021/11/22 00:48:07;;;;;;;13.43;7.67;;;;;;;4.89;84.12;100685.77;1643196;86;20946;-75
2021/11/22 00:50:35;;;;;;;10.93;6.15;;;;;;;4.90;84.12;100686.20;1632131;86;20937;-75
2021/11/22 00:53:03;;;;;;;8.63;5.22;;;;;;;4.91;84.10;100681.93;1622772;87;20941;-75
2021/11/22 00:55:30;;;;;;;7.80;5.33;;;;;;;4.91;84.08;100685.34;1667823;85;20895;-75
2021/11/22 00:57:56;;;;;;;12.90;6.28;;;;;;;4.92;84.08;100687.48;1686655;84;20859;-75
2021/11/22 01:00:23;;;;;;;13.40;7.42;;;;;;;4.91;84.14;100691.75;1654560;86;20934;-75
2021/11/22 01:02:50;;;;;;;11.05;6.33;;;;;;;4.93;84.16;100700.73;1628854;86;20990;-75
2021/11/22 01:05:16;;;;;;;9.75;5.70;;;;;;;4.94;84.17;100710.14;1670038;84;26849;-75
2021/11/22 01:07:43;;;;;;;10.60;6.37;;;;;;;4.94;84.17;100707.16;1690522;83;20891;-75
2021/11/22 01:10:10;;;;;;;13.93;7.65;;;;;;;4.95;84.22;100710.58;1686417;84;20911;-75
2021/11/22 01:12:36;;;;;;;9.60;5.92;;;;;;;4.96;84.25;100719.98;1665195;86;20937;-75
2021/11/22 01:15:08;;;;;;;11.43;7.00;;;;;;;4.98;84.26;100710.60;1665222;85;20902;-75
2021/11/22 01:17:35;;;;;;;9.83;5.80;;;;;;;5.01;84.24;100714.89;1640553;85;20918;-75
2021/11/22 01:20:03;;;;;;;7.22;5.22;;;;;;;5.02;84.25;100716.19;1656346;85;20958;-75
2021/11/22 01:22:29;;;;;;;8.65;5.53;;;;;;;5.00;84.23;100715.31;1648477;86;20910;-75
2021/11/22 01:24:56;;;;;;;8.85;6.08;;;;;;;5.03;84.20;100724.31;1687626;84;20924;-75
2021/11/22 01:27:23;;;;;;;10.55;6.03;;;;;;;5.03;84.22;100719.19;1648495;85;20929;-75
2021/11/22 01:29:53;;;;;;;13.53;6.00;;;;;;;5.05;84.27;100722.63;1640304;85;21450;-75
2021/11/22 01:32:19;;;;;;;12.10;6.20;;;;;;;5.06;84.23;100725.63;1610795;86;20906;-75
2021/11/22 01:34:45;;;;;;;13.08;6.53;;;;;;;5.07;84.25;100725.20;1647344;87;20950;-75
2021/11/22 01:37:12;;;;;;;8.33;5.78;;;;;;;5.08;84.28;100730.76;1684719;84;21396;-75
2021/11/22 01:39:38;;;;;;;12.50;5.83;;;;;;;5.06;84.17;100742.28;1658998;85;21395;-75
2021/11/22 01:42:06;;;;;;;10.32;6.25;;;;;;;4.99;84.10;100740.50;1688898;84;21490;-75
2021/11/22 01:44:32;;;;;;;14.95;7.67;;;;;;;4.97;84.22;100736.65;1670705;84;21369;-75
2021/11/22 01:46:58;;;;;;;14.83;7.45;;;;;;;4.99;84.32;100732.40;1688418;84;20915;-75
2021/11/22 01:49:24;;;;;;;13.70;6.80;;;;;;;5.02;84.38;100735.83;1654182;86;21099;-75
2021/11/22 01:51:51;;;;;;;9.40;5.65;;;;;;;5.00;84.37;100730.69;1645071;85;21925;-75
2021/11/22 01:54:23;;;;;;;14.53;6.67;;;;;;;5.03;84.41;100738.41;1643794;86;21520;-75
2021/11/22 01:56:49;;;;;;;15.13;7.35;;;;;;;5.04;84.39;100745.67;1668566;84;21626;-75
2021/11/22 01:59:17;;;;;;;12.58;6.03;;;;;;;5.04;84.37;100749.52;1647133;85;21576;-75
2021/11/22 02:01:45;;;;;;;11.10;6.67;;;;;;;5.03;84.35;100744.81;1635114;85;20922;-75
2021/11/22 02:04:12;;;;;;;9.98;6.58;;;;;;;5.04;84.39;100745.25;1683703;84;20943;-75
2021/11/22 02:06:39;;;;;;;14.03;7.65;;;;;;;5.03;84.30;100749.08;1663049;85;20942;-75
2021/11/22 02:09:06;;;;;;;13.38;6.35;;;;;;;5.01;84.33;100750.34;1669096;84;21411;-75
2021/11/22 02:11:35;;;;;;;17.55;6.97;;;;;;;4.98;84.20;100756.73;1689528;84;21317;-75
2021/11/22 02:14:03;;;;;;;12.28;7.05;;;;;;;4.94;84.27;100762.66;1636827;87;21431;-74
2021/11/22 02:16:29;;;;;;;14.33;7.37;;;;;;;4.94;84.43;100763.95;1633573;87;21386;-74
2021/11/22 02:18:56;;;;;;;18.55;6.33;;;;;;;4.95;84.45;100766.52;1639313;86;21421;-74
2021/11/22 02:21:24;;;;;;;13.20;6.87;;;;;;;4.94;84.30;100766.09;1636423;86;21414;-74
2021/11/22 02:23:51;;;;;;;15.85;7.85;;;;;;;4.89;84.23;100774.16;1689223;84;21336;-74
2021/11/22 02:26:17;;;;;;;16.90;7.58;;;;;;;4.87;84.42;100778.41;1687693;84;20958;-74
2021/11/22 02:28:45;;;;;;;16.32;7.60;;;;;;;4.89;84.52;100780.56;1655903;85;21647;-75
2021/11/22 02:31:12;;;;;;;13.05;7.70;;;;;;;4.93;84.56;100780.17;1656219;85;22113;-75
2021/11/22 02:33:38;;;;;;;17.77;7.03;;;;;;;4.96;84.60;100787.88;1666474;83;20890;-75
2021/11/22 02:36:05;;;;;;;;;;;;;;;5.00;84.59;100787.07;1650372;85;21437;-75
2021/11/22 02:38:34;;;;;;;13.88;6.05;;;;;;;5.01;84.66;100790.06;1686995;84;20421;-75
2021/11/22 02:41:03;;;;;;;13.60;6.30;;;;;;;5.03;84.59;100796.49;1670052;84;20894;-75
2021/11/22 02:43:32;;;;;;;12.00;6.70;;;;;;;5.03;84.53;100801.19;1659256;86;21604;-75
2021/11/22 02:45:58;;;;;;;18.10;6.37;;;;;;;5.05;84.59;100801.20;1654292;85;20978;-75
2021/11/22 02:48:25;;;;;;;14.18;6.35;;;;;;;5.07;84.62;100802.94;1651580;85;25503;-75
2021/11/22 02:50:52;;;;;;;9.15;5.25;;;;;;;5.09;84.64;100805.09;1639564;86;21647;-75
2021/11/22 02:53:18;;;;;;;8.53;5.00;;;;;;;5.10;84.61;100806.81;1671680;84;21030;-75
2021/11/22 02:55:45;;;;;;;9.08;5.12;;;;;;;5.10;84.58;100811.94;1663134;85;21065;-75
2021/11/22 02:58:11;;;;;;;12.15;5.72;;;;;;;5.10;84.58;100811.08;1644382;85;21012;-75
2021/11/22 03:00:40;;;;;;;10.15;5.30;;;;;;;5.10;84.58;100815.78;1668237;84;21620;-75
2021/11/22 03:03:06;;;;;;;17.95;5.53;;;;;;;5.08;84.63;100814.91;1680799;84;21053;-75
2021/11/22 03:05:32;;;;;;;13.58;7.60;;;;;;;5.10;84.66;100813.64;1652656;86;21077;-75
2021/11/22 03:08:01;;;;;;;12.20;5.60;;;;;;;5.11;84.72;100818.78;1634145;86;21053;-75
2021/11/22 03:10:28;;;;;;;8.63;4.87;;;;;;;5.13;84.74;100828.62;1681819;85;21364;-75
2021/11/22 03:12:55;;;;;;;9.15;5.05;;;;;;;5.15;84.73;100828.22;1652222;85;20943;-75
2021/11/22 03:15:22;;;;;;;12.47;5.17;;;;;;;5.18;84.68;100831.23;1668655;85;20892;-75
2021/11/22 03:17:49;;;;;;;8.45;4.97;;;;;;;5.18;84.68;100833.80;1663164;85;20904;-75
2021/11/22 03:20:18;;;;;;;;;;;;;;;5.18;84.69;100833.37;1689014;84;20939;-75
2021/11/22 03:22:45;;;;;;;12.85;5.22;;;;;;;5.19;84.72;100836.80;1669587;85;20403;-75
2021/11/22 03:25:13;;;;;;;;;;;;;;;5.17;84.71;100838.06;1656240;86;21375;-75
2021/11/22 03:27:42;;;;;;;13.00;5.17;;;;;;;5.17;84.76;100837.20;1606918;88;20414;-75
2021/11/22 03:30:10;;;;;;;10.20;5.17;;;;;;;5.17;84.74;100841.91;1660072;86;21405;-75
2021/11/22 03:32:41;;;;;;;8.73;4.60;;;;;;;5.19;84.79;100845.77;1658970;85;21047;-75
2021/11/22 03:35:08;;;;;;;;;;;;;;;5.19;84.74;100846.63;1679292;84;21098;-75
2021/11/22 03:37:34;;;;;;;10.03;5.30;;;;;;;5.19;84.76;100849.20;1661662;85;20127;-75
2021/11/22 03:40:02;;;;;;;8.30;4.53;;;;;;;5.17;84.73;100854.73;1676932;84;21340;-75
2021/11/22 03:42:36;;;;;;;;;;;;;;;5.15;84.67;100861.97;1658279;85;21531;-75
2021/11/22 03:44:56;;;;;;;8.68;4.45;;;;;;;5.13;84.82;100868.78;1682606;85;20427;-75
2021/11/22 03:47:22;;;;;;;9.85;4.70;;;;;;;5.13;84.81;100864.94;1660423;85;21383;-75
2021/11/22 03:49:48;;;;;;;12.45;5.42;;;;;;;5.15;84.79;100874.36;1663012;85;20872;-75
2021/11/22 03:52:14;;;;;;;6.72;4.47;;;;;;;5.15;84.78;100877.34;1646770;86;21092;-75
2021/11/22 03:54:41;;;;;;;8.40;4.62;;;;;;;5.14;84.78;100877.77;1650754;86;21061;-75
2021/11/22 03:57:07;;;;;;;9.65;5.33;;;;;;;5.13;84.73;100882.88;1642886;86;21069;-75
2021/11/22 03:59:35;;;;;;;11.45;5.15;;;;;;;5.11;84.76;100890.55;1627135;86;21109;-75
2021/11/22 04:02:02;;;;;;;10.95;4.58;;;;;;;5.10;84.79;100891.81;1674592;85;21023;-75
2021/11/22 04:04:29;;;;;;;11.12;5.15;;;;;;;5.10;84.81;100900.36;1661458;85;20994;-75
2021/11/22 04:06:55;;;;;;;10.82;5.00;;;;;;;5.10;84.82;100897.80;1694132;84;21065;-75
2021/11/22 04:09:22;;;;;;;8.75;5.00;;;;;;;5.09;84.80;100899.06;1665265;85;20937;-75
2021/11/22 04:11:48;;;;;;;10.43;4.35;;;;;;;5.09;84.81;100905.47;1651645;85;20890;-75
2021/11/22 04:14:15;;;;;;;10.18;4.80;;;;;;;5.10;84.85;100908.47;1682325;84;20928;-75
2021/11/22 04:16:41;;;;;;;;;;;;;;;5.11;84.83;100907.63;1665936;85;21005;-75
2021/11/22 04:19:08;;;;;;;11.35;4.83;;;;;;;5.11;84.85;100915.32;1670778;84;20207;-75
2021/11/22 04:21:34;;;;;;;12.07;5.17;;;;;;;5.09;84.77;100916.59;1687153;84;21034;-75
2021/11/22 04:24:01;;;;;;;13.38;5.45;;;;;;;5.06;84.80;100916.97;1686970;84;21055;-75
2021/11/22 04:26:27;;;;;;;9.60;5.33;;;;;;;5.05;84.78;100916.11;1670490;84;21127;-75
2021/11/22 04:28:53;;;;;;;11.33;5.08;;;;;;;5.05;84.81;100917.81;1655590;86;21727;-75
2021/11/22 04:31:20;;;;;;;10.53;4.95;;;;;;;5.04;84.80;100916.95;1653297;86;21071;-75
2021/11/22 04:33:47;;;;;;;8.18;4.97;;;;;;;5.04;84.83;100927.63;1650258;84;21077;-75
2021/11/22 04:36:13;;;;;;;15.68;5.85;;;;;;;5.03;84.84;100931.03;1623528;86;21099;-74
2021/11/22 04:38:47;;;;;;;9.93;5.03;;;;;;;5.01;84.85;100937.84;1641035;85;21049;-75
2021/11/22 04:41:13;;;;;;;10.18;4.70;;;;;;;4.98;84.79;100938.67;1648337;86;21061;-75
2021/11/22 04:43:39;;;;;;;8.90;5.03;;;;;;;4.96;84.77;100940.34;1683077;84;21038;-75
2021/11/22 04:46:05;;;;;;;7.60;4.58;;;;;;;4.92;84.79;100944.58;1687652;84;21062;-75
2021/11/22 04:48:34;;;;;;;8.73;4.67;;;;;;;4.90;84.80;100949.24;1687102;84;21067;-75
2021/11/22 04:51:01;;;;;;;9.65;4.60;;;;;;;4.87;84.81;100949.20;1646726;85;21069;-75
2021/11/22 04:53:27;;;;;;;10.32;4.97;;;;;;;4.85;84.82;100950.46;1633748;86;21223;-75
2021/11/22 04:55:54;;;;;;;9.15;4.55;;;;;;;4.82;84.83;100952.13;1670048;84;21006;-75
2021/11/22 04:58:20;;;;;;;11.28;5.35;;;;;;;4.80;84.83;100960.21;1686473;84;21533;-74
2021/11/22 05:00:46;;;;;;;13.53;4.62;;;;;;;4.77;84.83;100965.30;1653057;85;21547;-74
2021/11/22 05:03:13;;;;;;;8.95;4.12;;;;;;;4.73;84.79;100969.94;1659524;86;21089;-74
2021/11/22 05:05:41;;;;;;;11.12;4.85;;;;;;;4.67;84.78;100973.73;1638938;85;21322;-74
2021/11/22 05:08:10;;;;;;;7.35;4.53;;;;;;;4.62;84.80;100973.24;1670660;84;21034;-74
2021/11/22 05:10:40;;;;;;;10.45;4.37;;;;;;;4.59;84.82;100978.32;1665526;86;21039;-74
2021/11/22 05:13:09;;;;;;;8.85;4.50;;;;;;;4.55;84.81;100978.25;1679131;84;21030;-74
2021/11/22 05:15:37;;;;;;;9.40;4.20;;;;;;;4.51;84.80;100984.17;1654851;86;21013;-74
2021/11/22 05:18:05;;;;;;;7.12;3.77;;;;;;;4.48;84.83;100990.53;1637421;86;21004;-74
2021/11/22 05:20:35;;;;;;;7.85;4.08;;;;;;;4.44;84.85;100993.45;1682568;84;21006;-74
2021/11/22 05:23:02;;;;;;;7.10;3.75;;;;;;;4.41;84.87;100995.97;1667971;85;20911;-75
2021/11/22 05:25:28;;;;;;;9.95;4.05;;;;;;;4.37;84.83;100999.33;1688091;84;21027;-75
2021/11/22 05:27:54;;;;;;;;;;;;;;;4.34;84.83;101006.95;1658585;86;21439;-75
2021/11/22 05:30:25;;;;;;;5.42;3.52;;;;;;;4.30;84.90;101009.89;1618904;87;20112;-75
2021/11/22 05:32:49;;;;;;;5.47;3.45;;;;;;;4.27;84.84;101007.70;1652305;86;20969;-75
2021/11/22 05:35:15;;;;;;;7.42;3.22;;;;;;;4.20;84.81;101004.59;1648796;86;21128;-75
2021/11/22 05:37:47;;;;;;;5.33;3.15;;;;;;;4.15;84.76;101013.52;1632729;86;21084;-75
2021/11/22 05:40:14;;;;;;;6.87;3.10;;;;;;;4.12;84.82;101020.27;1684933;84;21033;-75
2021/11/22 05:42:41;;;;;;;4.03;3.00;;;;;;;4.10;84.91;101015.13;1650825;86;21132;-74
2021/11/22 05:45:07;;;;;;;;;;;;;;;4.10;84.92;101021.53;1642947;86;21116;-74
2021/11/22 05:47:34;;;;;;;8.55;3.12;;;;;;;4.10;84.93;101027.92;1598015;87;20214;-74
2021/11/22 05:50:08;;;;;;;5.87;2.98;;;;;;;4.09;84.89;101031.73;1669396;84;26897;-74
2021/11/22 05:52:34;;;;;;;4.72;2.55;;;;;;;4.06;84.87;101032.97;1648756;85;21423;-75
2021/11/22 05:55:06;;;;;;;5.62;2.75;;;;;;;4.05;84.90;101036.36;1643743;86;21435;-75
2021/11/22 05:57:33;;;;;;;6.62;2.90;;;;;;;4.05;84.94;101042.76;1662837;84;20971;-75
2021/11/22 05:59:59;;;;;;;4.33;2.50;;;;;;;4.06;84.97;101047.90;1663856;85;21118;-75
2021/11/22 06:02:26;;;;;;;4.28;2.55;;;;;;;4.08;85.02;101051.77;1686940;84;21050;-75
2021/11/22 06:04:52;;;;;;;4.37;2.35;;;;;;;4.09;85.02;101054.35;1686748;84;21074;-75
2021/11/22 06:07:18;;;;;;;5.80;3.12;;;;;;;4.12;85.05;101054.83;1664868;84;21070;-75
2021/11/22 06:09:45;;;;;;;3.15;2.35;;;;;;;4.15;85.04;101057.02;1651888;86;21217;-75
2021/11/22 06:12:11;;;;;;;6.25;2.15;;;;;;;4.15;85.00;101059.58;1648837;86;21077;-75
2021/11/22 06:14:38;;;;;;;4.87;2.67;;;;;;;4.18;85.01;101072.81;1647852;86;21064;-75
2021/11/22 06:17:04;;;;;;;4.70;2.12;;;;;;;4.18;85.00;101074.09;1644858;86;21175;-71
2021/11/22 06:19:30;;;;;;;3.22;2.20;;;;;;;4.18;84.99;101072.39;1675891;84;21413;-70
2021/11/22 06:21:57;;;;;;;3.35;2.10;;;;;;;4.19;84.99;101080.52;1681952;84;21057;-70
2021/11/22 06:24:24;;;;;;;5.95;2.10;;;;;;;4.20;85.01;101081.37;1670696;84;21077;-70
2021/11/22 06:26:53;;;;;;;2.58;2.25;;;;;;;4.20;84.97;101086.08;1646143;86;21152;-71
2021/11/22 06:29:23;;;;;;;3.95;2.27;;;;;;;4.20;84.90;101098.02;1654248;86;21148;-71
2021/11/22 06:31:49;;;;;;;5.70;2.40;;;;;;;4.16;84.86;101100.11;1653079;86;21060;-70
2021/11/22 06:34:16;;;;;;;3.60;2.40;;;;;;;4.13;84.86;101102.61;1651895;86;21068;-71
2021/11/22 06:36:42;;;;;;;3.02;1.75;;;;;;;4.10;84.84;101103.83;1646067;86;21073;-71
2021/11/22 06:39:08;;;;;;;3.65;2.10;;;;;;;4.08;84.88;101102.53;1646761;86;21036;-71
2021/11/22 06:41:35;;;;;;;3.58;2.00;;;;;;;4.06;84.87;101108.03;1679750;84;21119;-71
2021/11/22 06:44:01;;;;;;;4.62;2.15;;;;;;;4.05;84.87;101106.72;1682850;84;21045;-71
2021/11/22 06:46:27;;;;;;;4.00;1.82;;;;;;;3.98;84.71;101114.29;1648982;86;21021;-71
2021/11/22 06:48:54;;;;;;;4.10;2.20;;;;;;;3.93;84.72;101120.15;1647461;86;21132;-71
2021/11/22 06:51:20;;;;;;;4.00;1.95;;;;;;;3.85;84.69;101118.72;1627242;86;21101;-71
2021/11/22 06:53:48;;;;;;;4.28;2.12;;;;;;;3.81;84.77;101120.77;1678985;84;21513;-71
2021/11/22 06:56:18;;;;;;;3.77;2.00;;;;;;;3.80;84.85;101130.97;1708634;83;246729;-71
2021/11/22 06:58:44;;;;;;;3.47;2.05;;;;;;;3.78;84.85;101128.80;1713400;83;21096;-71
2021/11/22 07:01:11;;;;;;;3.42;2.20;;;;;;;3.72;84.65;101133.80;1711704;83;21106;-71
2021/11/22 07:03:37;;;;;;;2.55;1.60;;;;;;;3.64;84.73;101142.17;1677761;84;21040;-71
2021/11/22 07:06:07;;;;;;;2.85;1.57;;;;;;;3.63;84.90;101143.45;1709948;82;21012;-71
2021/11/22 07:08:32;;;;;;;2.45;1.90;;;;;;;3.62;84.91;101147.70;1669589;85;20905;-70
2021/11/22 07:10:58;;;;;;;1.72;1.42;;;;;;;3.59;84.82;101152.75;1654389;85;21097;-70
2021/11/22 07:13:25;;;;;;;3.50;2.17;;;;;;;3.56;84.87;101153.10;1673894;85;21135;-70
2021/11/22 07:15:51;;;;;;;2.72;1.62;;;;;;;3.55;84.95;101156.48;1707644;83;22263;-70
2021/11/22 07:18:18;;;;;;;2.90;1.80;;;;;;;3.54;84.95;101160.74;1696611;83;21057;-70
2021/11/22 07:20:46;;;;;;;2.75;1.30;;;;;;;3.53;84.97;101161.58;1705941;83;21072;-70
2021/11/22 07:23:13;;;;;;;3.17;1.72;;;;;;;3.52;84.97;101162.81;1707439;83;21123;-70
2021/11/22 07:25:39;;;;;;;4.37;2.12;;;;;;;3.51;84.95;101170.91;1674717;85;21004;-70
2021/11/22 07:28:06;;;;;;;2.95;1.72;;;;;;;3.52;85.02;101176.88;1661038;85;21000;-70
2021/11/22 07:30:32;;;;;;;4.60;2.08;;;;;;;3.51;84.96;101173.88;1659705;85;21028;-70
2021/11/22 07:33:00;;;;;;;7.25;2.52;;;;;;;3.50;84.99;101178.54;1647812;85;21094;-70
2021/11/22 07:35:26;;;;;;;7.10;3.77;;;;;;;3.49;84.96;101183.20;1707864;83;21060;-70
2021/11/22 07:37:53;;;;;;;2.87;2.47;;;;;;;3.49;85.00;101189.59;1709581;83;21124;-70
2021/11/22 07:40:21;;;;;;;7.78;4.22;;;;;;;3.49;84.97;101192.16;1707472;83;21072;-70
2021/11/22 07:42:49;;;;;;;11.12;5.40;;;;;;;3.48;84.99;101191.70;1665553;85;21338;-70
2021/11/22 07:45:16;;;;;;;17.73;5.95;;;;;;;3.50;85.04;101196.44;1703855;83;20973;-70
2021/11/22 07:47:42;;;;;;;12.73;5.85;;;;;;;3.52;85.08;101198.61;1674407;85;21179;-71
2021/11/22 07:50:08;;;;;;;7.95;5.17;;;;;;;3.54;84.99;101208.45;1671894;85;21135;-71
2021/11/22 07:52:35;;;;;;;13.28;6.05;;;;;;;3.53;85.05;101199.92;1661034;85;21019;-71
2021/11/22 07:55:01;;;;;;;15.93;6.12;;;;;;;3.54;85.04;101208.04;1696423;83;21418;-71
2021/11/22 07:57:28;;;;;;;10.75;5.53;;;;;;;3.54;84.99;101214.44;1708483;83;21112;-71
2021/11/22 07:59:54;;;;;;;7.97;4.83;;;;;;;3.52;84.98;101213.53;1672567;85;21068;-71
2021/11/22 08:02:21;;;;;;;10.50;5.33;;;;;;;3.54;85.06;101225.08;1662776;85;21367;-71
2021/11/22 08:04:47;;;;;;;8.43;4.78;;;;;;;3.56;85.08;101227.25;1661581;85;21133;-71
2021/11/22 08:07:16;;;;;;;9.45;4.42;;;;;;;3.58;85.07;101232.85;1679794;84;21022;-71
2021/11/22 08:09:46;;;;;;;10.45;4.47;;;;;;;3.59;85.10;101237.13;1684261;84;21046;-71
2021/11/22 08:14:40;;;;;;;7.40;3.75;;;;;;;3.63;85.12;101253.41;1684797;83;21045;-71
2021/11/22 08:17:07;;;;;;;7.08;3.98;;;;;;;3.65;85.16;101256.83;1680512;83;22120;-71
2021/11/22 08:19:34;;;;;;;8.13;4.35;;;;;;;3.68;85.18;101260.73;1710730;83;21020;-71
2021/11/22 08:22:01;;;;;;;6.30;4.10;;;;;;;3.70;85.16;101261.64;1705100;83;21072;-71
2021/11/22 08:24:27;;;;;;;;;;;;;;;3.73;85.20;101262.98;1695564;84;21071;-71
2021/11/22 08:26:55;;;;;;;10.90;4.70;;;;;;;3.76;85.22;101272.00;1650002;85;20462;-71
2021/11/22 08:29:21;;;;;;;103.50;65.30;;;;;;;3.77;85.18;101271.17;1689575;84;21191;-71
2021/11/22 08:31:47;;;;;;;6.28;3.80;;;;;;;3.80;85.19;101269.96;1663249;84;21127;-71
2021/11/22 08:34:14;;;;;;;42.65;11.70;;;;;;;3.82;85.23;101268.30;1680560;84;21070;-71
2021/11/22 08:36:40;;;;;;;5.62;4.20;;;;;;;3.85;85.21;101272.62;1682275;84;21027;-71
2021/11/22 08:39:06;;;;;;;10.35;4.50;;;;;;;3.88;85.26;101279.95;1680057;84;21068;-71
2021/11/22 08:41:36;;;;;;;7.72;4.22;;;;;;;3.92;85.28;101280.47;1706513;82;21112;-71
2021/11/22 08:44:03;;;;;;;8.18;4.28;;;;;;;3.96;85.21;101277.14;1691829;84;21110;-71
2021/11/22 08:46:29;;;;;;;7.37;4.10;;;;;;;4.01;85.26;101281.50;1688831;83;21109;-71
2021/11/22 08:48:56;;;;;;;5.37;3.65;;;;;;;4.05;85.31;101294.80;1672104;84;21901;-71
2021/11/22 08:51:22;;;;;;;4.10;3.27;;;;;;;4.09;85.28;101292.34;1672089;84;21556;-71
2021/11/22 08:53:48;;;;;;;7.47;4.15;;;;;;;4.15;85.34;101294.17;1663132;85;21070;-71
2021/11/22 08:56:15;;;;;;;24.40;8.63;;;;;;;4.20;85.30;101298.94;1673874;83;21084;-71
2021/11/22 08:58:41;;;;;;;219.62;15.58;;;;;;;4.24;85.37;101300.31;1713508;83;21099;-71
2021/11/22 09:01:08;;;;;;;49.42;6.50;;;;;;;4.30;85.33;101306.84;1691583;84;21079;-71
2021/11/22 09:03:35;;;;;;;116.22;10.08;;;;;;;4.35;85.31;101309.91;1673433;85;21118;-71
2021/11/22 09:06:02;;;;;;;335.00;59.05;;;;;;;4.39;85.22;101312.98;1683947;84;20969;-70
2021/11/22 09:08:29;;;;;;;44.63;40.50;;;;;;;4.41;85.27;101322.42;1643832;84;529651;-71
2021/11/22 09:10:56;;;;;;;49.23;18.50;;;;;;;4.46;85.33;101325.94;1713132;83;21583;-71
2021/11/22 09:13:24;;;;;;;8.48;4.40;;;;;;;4.50;85.23;101326.45;1682146;84;21126;-71
2021/11/22 09:15:50;;;;;;;7.05;4.05;;;;;;;4.54;85.27;101332.50;1715657;83;20902;-71
2021/11/22 09:18:17;;;;;;;6.03;4.22;;;;;;;4.58;85.24;101330.45;1708164;83;20914;-71
2021/11/22 09:20:43;;;;;;;6.33;4.20;;;;;;;4.61;85.26;101336.49;1716072;83;20850;-71
2021/11/22 09:23:11;;;;;;;5.58;4.58;;;;;;;4.67;85.25;101328.48;1716287;83;20949;-71
2021/11/22 09:25:38;;;;;;;6.70;4.22;;;;;;;4.70;85.20;101334.50;1692984;84;21092;-71
2021/11/22 09:28:05;;;;;;;5.15;3.52;;;;;;;4.72;85.21;101335.39;1686957;84;21043;-71
2021/11/22 09:30:32;;;;;;;4.80;3.62;;;;;;;4.77;85.24;101333.78;1714484;83;21071;-71
2021/11/22 09:32:58;;;;;;;;;;;;;;;4.79;85.14;101334.67;1713114;83;21425;-71
2021/11/22 09:35:43;;;;;;;5.25;3.67;;;;;;;4.81;85.11;101335.57;1707051;83;20576;-71
2021/11/22 09:38:09;;;;;;;4.20;3.55;;;;;;;4.83;85.11;101336.88;1689271;84;21099;-71
2021/11/22 09:40:37;;;;;;;4.30;4.00;;;;;;;4.82;85.03;101337.72;1711695;83;21088;-71
2021/11/22 09:43:06;;;;;;;4.47;3.37;;;;;;;4.83;85.05;101339.44;1699340;83;21504;-71
2021/11/22 09:45:33;;;;;;;7.50;5.80;;;;;;;4.84;85.12;101335.63;1686736;84;20914;-71
2021/11/22 09:48:02;;;;;;;3.98;3.40;;;;;;;4.90;85.13;101340.00;1707433;83;26491;-71
2021/11/22 09:50:31;;;;;;;4.30;3.08;;;;;;;4.94;85.15;101343.07;1679181;84;21079;-71
2021/11/22 09:52:59;;;;;;;3.65;2.77;;;;;;;4.98;85.19;101345.72;1688584;84;21315;-71
2021/11/22 09:55:30;;;;;;;4.70;3.00;;;;;;;5.04;85.13;101340.27;1688013;83;20914;-71
2021/11/22 09:57:58;;;;;;;3.87;2.40;;;;;;;5.06;85.13;101344.58;1714263;83;20941;-71
2021/11/22 10:00:34;;;;;;;3.35;2.22;;;;;;;5.10;85.06;101348.92;1714712;83;21088;-71
2021/11/22 10:03:01;;;;;;;5.15;2.47;;;;;;;5.11;85.01;101345.53;1712507;83;20932;-71
2021/11/22 10:05:33;;;;;;;2.10;1.85;;;;;;;5.14;85.02;101342.16;1711715;83;21005;-71
2021/11/22 10:08:13;;;;;;;3.10;2.17;;;;;;;5.16;85.01;101337.92;1691103;83;20909;-71
2021/11/22 10:10:55;;;;;;;2.83;1.90;;;;;;;5.15;84.94;101342.60;1672802;85;20910;-71
2021/11/22 10:13:32;;;;;;;5.55;2.00;;;;;;;5.17;84.96;101337.95;1707512;82;21105;-71
2021/11/22 10:16:21;;;;;;;2.00;1.70;;;;;;;5.21;85.02;101344.82;1709997;82;21038;-71
2021/11/22 10:18:59;;;;;;;2.67;1.70;;;;;;;5.26;85.05;101347.47;1672892;83;21015;-71
2021/11/22 10:21:37;;;;;;;4.40;1.87;;;;;;;5.29;84.98;101349.67;1668111;84;20989;-71
2021/11/22 10:24:07;;;;;;;2.10;1.40;;;;;;;5.31;84.97;101344.56;1672185;85;21638;-71
2021/11/22 10:26:48;;;;;;;2.40;1.45;;;;;;;5.33;84.95;101341.19;1680188;83;20995;-71
2021/11/22 10:29:26;;;;;;;4.30;1.25;;;;;;;5.37;84.92;101340.82;1672619;85;21048;-71
2021/11/22 10:32:00;;;;;;;3.02;1.60;;;;;;;5.42;84.86;101343.46;1667988;84;20985;-71
2021/11/22 10:34:27;;;;;;;1.67;1.15;;;;;;;5.46;84.87;101347.81;1662054;84;21033;-71
2021/11/22 10:37:02;;;;;;;3.42;1.40;;;;;;;5.48;84.80;101341.87;1709928;82;20994;-71
2021/11/22 10:39:30;;;;;;;0.98;0.62;;;;;;;5.52;84.82;101342.78;1711116;82;20932;-71
2021/11/22 10:41:56;;;;;;;1.22;0.62;;;;;;;5.57;84.63;101343.72;1704473;82;21553;-71
2021/11/22 10:44:30;;;;;;;1.75;0.78;;;;;;;5.61;84.77;101342.93;1690246;83;22188;-71
2021/11/22 10:47:10;;;;;;;3.72;0.65;;;;;;;5.63;84.54;101336.98;1709250;82;21606;-71
2021/11/22 10:49:43;;;;;;;1.12;0.60;;;;;;;5.67;84.54;101337.03;1705548;82;21053;-71
2021/11/22 10:52:16;;;;;;;1.95;0.50;;;;;;;5.67;84.51;101343.45;1706976;82;21452;-71
2021/11/22 10:54:56;;;;;;;0.72;0.53;;;;;;;5.71;84.50;101346.50;1704682;82;21155;-71
2021/11/22 10:57:32;;;;;;;1.47;0.50;;;;;;;5.70;84.34;101349.48;1708795;83;20987;-71
2021/11/22 10:59:58;;;;;;;2.50;0.50;;;;;;;5.72;84.42;101337.97;1703320;82;21500;-71
2021/11/22 11:02:41;;;;;;;0.47;0.23;;;;;;;5.81;84.48;101341.92;1709027;82;21080;-71
2021/11/22 11:05:28;;;;;;;0.50;0.40;;;;;;;5.87;84.38;101348.44;1701236;82;21458;-71
2021/11/22 11:08:06;;;;;;;1.07;0.20;;;;;;;5.90;84.12;101349.80;1716256;81;21445;-71
2021/11/22 11:10:33;;;;;;;1.62;0.50;;;;;;;5.87;83.99;101349.30;1690009;83;21417;-71
2021/11/22 11:13:00;;;;;;;0.40;0.40;;;;;;;5.90;84.07;101357.08;1683575;84;21055;-71
2021/11/22 11:15:27;;;;;;;0.88;0.55;;;;;;;5.96;84.26;101353.31;1688175;84;21457;-71
2021/11/22 11:18:01;;;;;;;1.17;0.70;;;;;;;6.04;84.27;101356.41;1686867;84;21554;-71
2021/11/22 11:20:29;;;;;;;0.75;0.75;;;;;;;6.06;84.04;101356.02;1688172;84;21633;-71
2021/11/22 11:22:55;;;;;;;0.98;0.88;;;;;;;6.14;84.14;101355.28;1690641;84;21683;-71
2021/11/22 11:25:24;;;;;;;1.00;0.40;;;;;;;6.26;84.12;101360.98;1692085;84;21594;-71
2021/11/22 11:27:53;;;;;;;0.90;0.40;;;;;;;6.39;84.18;101364.58;1691149;84;21031;-71
2021/11/22 11:30:21;;;;;;;0.30;0.30;;;;;;;6.45;83.97;101359.52;1711547;83;21025;-71
2021/11/22 11:32:52;;;;;;;0.82;0.50;;;;;;;6.50;83.98;101361.30;1692187;84;21578;-71
2021/11/22 11:35:21;;;;;;;1.25;0.47;;;;;;;6.53;83.87;101355.34;1711655;83;21049;-71
2021/11/22 11:38:31;;;;;;;0.70;0.50;;;;;;;6.51;83.74;101358.31;1691171;84;21511;-71